Fuzhou, Fujian

11:16 AM CST on August 26, 2016 (GMT +0800)
Changle | | Change Station

Elev 46 ft 25.94 °N, 119.67 °E | Updated 16 minutes ago

Scattered Clouds
Scattered Clouds
93 °F
Feels Like 107 °F
N
7
Wind Variable Wind from East

Today
High -- | Low -- °F
--% Chance of Precip.
Yesterday
High -- | Low -- °F
Precip. -- in
Pressure 29.68 in
Visibility 6.2 miles
Clouds Scattered Clouds 2000 ft
Heat Index 107 °F
Dew Point 77 °F
Humidity 59%
Rainfall 0.00 in
Snow Depth Not available.
5:40 AM 6:28 PM
Last Quarter, 39% visible
METAR ZSFZ 260300Z 10003MPS 060V130 9999 SCT020 34/25 Q1005 NOSIG
Pressure 29.68 in
Visibility 6.2 miles
Clouds Scattered Clouds 2000 ft
Heat Index 107 °F
Dew Point 77 °F
Humidity 59%
Rainfall 0.00 in
Snow Depth Not available.
5:40 AM 6:28 PM
Last Quarter, 39% visible
METAR ZSFZ 260300Z 10003MPS 060V130 9999 SCT020 34/25 Q1005 NOSIG

10-Day Weather Forecast

No radar image for this location.
×

Almanac

Astronomy

Aug. 26, 2016 Rise Set
Actual Time
Civil Twilight
Nautical Twilight
Astronomical Twilight
Moon
Length of Visible Light
Length of Day
Tomorrow will be .
, % of the Moon is Illuminated

Today's Extremes

Country Highs Country Lows

Community

WunderPhotos

Upload Photos

1,935,036 photos uploaded!

WunderBlog® & News

Nearby

Air Quality

  Air Quality AQ Index Pollutant
Not available.

Snow Depth

Station Depth Elevation

Earthquake Activity

City Distance Mag. Time & Date
Minimum magnitude displayed is 2.5.

Coastal Water Temperatures

Place Temperature

Stations

Nearby Weather Stations

Station Location Temp. Windchill Dew Point Humidity Wind Precip. Elev Updated Type